Sonic Adventure (DX): Overall Rankings

Records: Times | Rings | Scores | Races | Bosses | Freestyle
Leaders: Times | Rings | Scores | Races | Bosses | Freestyle | Overall
Rank Player Percent Points Date
1 Sonicspeedruner 97.9% 370 08-27-21
2 Gamepro011 97.6% 426 08-27-21
3 DarkPolarNight 96.3% 674 08-27-21
4 Jawzun 92.7% 1323 08-27-21
5 Dashjump 91.2% 1609 08-27-21
6 Avento128bits 89.2% 1963 08-27-21
7 DarkspinesSonic 89.2% 1974 08-27-21
8 ike6252 89.0% 2013 08-27-21
9 F-Man 87.1% 2348 08-27-21
10 Coolfansonic 87.0% 2378 08-27-21
11 TheRealShadnic 84.7% 2797 08-27-21
12 HyperSonic7701 84.3% 2859 08-27-21
13 Nim 83.5% 3007 08-27-21
14 yoshifan 82.2% 3256 08-27-21
15 frankoredstrato 81.7% 3343 08-27-21
16 francisco 80.8% 3510 08-27-21
17 Marth 80.4% 3570 08-27-21
18 InferSaime 79.3% 3785 08-27-21
19 PfoSonic 78.7% 3880 08-27-21
20 Paragod 78.4% 3950 08-27-21
21 THC98 77.5% 4108 08-27-21
22 Stefan 75.1% 4550 08-27-21
23 Dekuboy 74.0% 4754 08-27-21
24 RPGnutter 73.1% 4917 08-27-21
25 bertin 72.9% 4955 08-27-21
26 sonicam 70.9% 5322 08-27-21
27 drminus 69.3% 5610 08-27-21
28 chaos shadow 68.9% 5690 08-27-21
29 chainchump 65.3% 6343 08-27-21
30 Combo 64.9% 6408 08-27-21
31 SkyLights 63.7% 6629 08-27-21
32 xXMegaManXx 62.1% 6919 08-27-21
33 Diamond 61.8% 6990 08-27-21
34 Auriman1 59.7% 7369 08-27-21
35 GerbilSoft 59.7% 7371 08-27-21
36 OmegaDJ 59.6% 7386 08-27-21
37 magnum12 58.9% 7519 08-27-21
38 Thorn 56.6% 7928 08-27-21
39 P1 Pause 56.4% 7978 08-27-21
40 mike89 55.2% 8198 08-27-21
41 Dave Cramer 53.4% 8528 08-27-21
42 Groudon199 53.2% 8561 08-27-21
43 Parax 52.6% 8673 08-27-21
44 SPVLABS 52.2% 8735 08-27-21
45 Shadow Jacky 52.2% 8741 08-27-21
46 CoEmpathy 49.3% 9275 08-27-21
47 Zurggriff 48.7% 9375 08-27-21
48 Psymar 47.1% 9665 08-27-21
49 Niczur 47.0% 9688 08-27-21
50 Arch 46.3% 9810 08-27-21
51 Chao_Fan 45.6% 9954 08-27-21
52 mauserman 44.8% 10096 08-27-21
53 Quartz 44.3% 10184 08-27-21
54 teamblackarms 43.7% 10297 08-27-21
55 Psyknux 42.8% 10453 08-27-21
56 Cyan Ryan 42.4% 10534 08-27-21
57 James_Bertolli 42.4% 10535 08-27-21
58 NintenDan 42.1% 10592 08-27-21
59 Turbos 41.4% 10707 08-27-21
60 Webber3000 41.4% 10711 08-27-21
61 Ring Rush 41.2% 10748 08-27-21
62 Cream147 41.1% 10779 08-27-21
63 Fr3nZy 41.0% 10790 08-27-21
64 Siavash Tazari 40.9% 10800 08-27-21
65 videogamemaster777 40.9% 10803 08-27-21
66 buddychaos0415 40.3% 10924 08-27-21
67 SadisticMystic 39.7% 11031 08-27-21
68 ethmar 39.1% 11132 08-27-21
69 eggFL 38.9% 11171 08-27-21
70 Calfd 38.1% 11327 08-27-21
71 SB737 37.2% 11476 08-27-21
72 supersonic465 36.9% 11540 08-27-21
73 supersonicfan 36.3% 11657 08-27-21
74 FuzZerd 35.0% 11895 08-27-21
75 Aitamen 34.6% 11964 08-27-21
76 BigAL49 34.2% 12034 08-27-21
77 elecmouse101 34.1% 12052 08-27-21
78 danieldude 34.1% 12057 08-27-21
79 Austinf 33.2% 12209 08-27-21
80 metanightmare22 33.0% 12252 08-27-21
81 dabestgamer 32.7% 12304 08-27-21
82 MiStEr_ShAoLiN 32.4% 12366 08-27-21
83 Andrea Ritsu 31.6% 12515 08-27-21
84 Mastakirby 31.5% 12518 08-27-21
85 itsPersonnal 31.2% 12579 08-27-21
86 JamminX42 30.6% 12694 08-27-21
87 SilvertheAlmighty 30.5% 12717 08-27-21
88 Cybrax 30.5% 12719 08-27-21
89 WeegeeZV 30.3% 12753 08-27-21
90 VMU Player Banned 28.4% 13098 08-27-21
91 Staf 28.1% 13148 08-27-21
92 Omega Rafael Santos 27.8% 13201 08-27-21
93 The T 27.6% 13243 08-27-21
94 EngiNerd 27.5% 13266 08-27-21
95 lordmetalsonic 27.0% 13346 08-27-21
96 Hipertails12 26.5% 13440 08-27-21
97 welldooder64 26.3% 13471 08-27-21
98 GreatStar 26.1% 13515 08-27-21
99 The Great Lord Mick 26.0% 13529 08-27-21
100 Sondow 25.9% 13557 08-27-21
101 LinksDarkArrows 25.8% 13578 08-27-21
102 Skylace 24.7% 13770 08-27-21
103 a_moustache 23.8% 13941 08-27-21
104 Rolken 23.3% 14025 08-27-21
105 andy120195 22.6% 14155 08-27-21
106 Spinballwizard 21.6% 14334 08-27-21
107 Kogen Player Banned 21.6% 14335 08-27-21
108 Xia 21.5% 14351 08-27-21
109 f0rever_zer0 21.2% 14407 08-27-21
110 Twilisailor 21.2% 14420 08-27-21
111 Pokemonmaster888 21.0% 14445 08-27-21
112 Don 21.0% 14451 08-27-21
113 Cutiefox 20.9% 14469 08-27-21
114 Miles9999 20.9% 14474 08-27-21
115 Game_Complete 20.8% 14487 08-27-21
116 iden1 20.7% 14510 08-27-21
117 andres430 20.3% 14570 08-27-21
118 Cruizer 20.0% 14631 08-27-21
119 iSonicKid2K 19.9% 14642 08-27-21
120 SADXTryHard 19.6% 14702 08-27-21
121 GarnetPrincess 19.2% 14779 08-27-21
122 N 19.0% 14823 08-27-21
123 AxlThunder 18.7% 14867 08-27-21
124 knuckles_sonic8 18.4% 14921 08-27-21
125 Team_Yoshi 17.9% 15022 08-27-21
126 KinkyCadence 17.8% 15026 08-27-21
127 The Knuckles Chao 17.8% 15032 08-27-21
128 Termon 17.5% 15088 08-27-21
129 LittleBigness 17.4% 15113 08-27-21
130 FoxBoy 17.3% 15130 08-27-21
131 SonicWinDX 17.3% 15134 08-27-21
132 Zethor 17.2% 15152 08-27-21
133 Drakodan 16.5% 15276 08-27-21
134 Sonic Singularity 15.6% 15444 08-27-21
135 paulie9990 14.8% 15587 08-27-21
136 SilverSonic 14.2% 15689 08-27-21
137 MPit08 14.2% 15696 08-27-21
138 sonicd5 14.1% 15719 08-27-21
139 Mo Player Banned 13.8% 15769 08-27-21
140 koinu93 13.7% 15787 08-27-21
141 Cod4Scopes 13.3% 15864 08-27-21
142 HyperSonic64 13.2% 15879 08-27-21
143 booo95 13.1% 15895 08-27-21
144 Jerzia 13.1% 15901 08-27-21
145 Modest 13.1% 15903 08-27-21
146 Hunters13 13.0% 15913 08-27-21
147 Chawkk 12.8% 15944 08-27-21
148 SuperSonic101 12.8% 15958 08-27-21
149 Maxinfamily 12.6% 15981 08-27-21
150 R3FR4G 12.5% 16001 08-27-21
151 PsyBorg 12.4% 16029 08-27-21
152 LilZero 12.3% 16038 08-27-21
153 Kanimayo_Jp 12.3% 16046 08-27-21
154 Flying Fox 12.2% 16062 08-27-21
155 BrokenArthritis 12.1% 16082 08-27-21
156 Therio 11.7% 16152 08-27-21
157 sonicspeed 11.6% 16172 08-27-21
158 SonicAD 11.4% 16202 08-27-21
159 douglas 11.4% 16211 08-27-21
160 Matt_TY 11.2% 16248 08-27-21
161 thewaytodawnnn 11.1% 16260 08-27-21
162 ModifiedMonkee 11.0% 16284 08-27-21
163 Cooljay 10.6% 16361 08-27-21
164 SuperBlitzCraig 10.4% 16386 08-27-21
165 joecoolgames 10.4% 16393 08-27-21
166 SeaWolf 10.4% 16394 08-27-21
167 videogamer1014 10.2% 16430 08-27-21
168 AC-Tygo 10.0% 16469 08-27-21
169 welshmoose05 9.9% 16486 08-27-21
170 OddCook 9.7% 16512 08-27-21
171 crazy1993 9.6% 16543 08-27-21
172 TFEC Headshot 9.5% 16553 08-27-21
173 Mcshuggets 9.4% 16575 08-27-21
174 Mariobutch 9.2% 16600 08-27-21
175 niscool 9.1% 16626 08-27-21
176 Irregular Zero 9.0% 16639 08-27-21
177 nuckrieg 8.9% 16660 08-27-21
178 Shadowthegreat 8.8% 16680 08-27-21
179 superjupi 8.8% 16685 08-27-21
180 SirTobbii 8.7% 16702 08-27-21
181 sonamyfan666 8.5% 16736 08-27-21
182 iarebored 8.4% 16751 08-27-21
182 Powerjohn25 8.4% 16751 08-27-21
184 SaviourDC 8.3% 16768 08-27-21
184 SonicKnuckles 8.3% 16768 08-27-21
186 Badlex727 8.2% 16787 08-27-21
187 Werey 8.1% 16814 08-27-21
188 adf 8.0% 16824 08-27-21
189 Megaman EXE565 7.7% 16878 08-27-21
190 ArcticDragon 7.5% 16919 08-27-21
191 Platformer 7.4% 16945 08-27-21
192 timpkmn89 7.3% 16962 08-27-21
193 Swift Hobo 7.2% 16980 08-27-21
194 FocusSight64 7.1% 16985 08-27-21
195 wheatrich 7.0% 17002 08-27-21
196 Vicklaw 7.0% 17003 08-27-21
197 Rickyman48 6.9% 17035 08-27-21
198 KitsuneYamaro 6.8% 17045 08-27-21
199 Sm4sh 6.7% 17063 08-27-21
200 Triseena 6.5% 17101 08-27-21
201 CyberShadow 6.3% 17134 08-27-21
202 Destroyer121121 6.3% 17136 08-27-21
203 Starlight Sable 6.3% 17137 08-27-21
204 slade23 6.3% 17143 08-27-21
205 dShadow 6.2% 17156 08-27-21
206 IsisDazs 6.1% 17171 08-27-21
207 BlankTH 5.9% 17212 08-27-21
208 Monkeh 5.8% 17234 08-27-21
209 SonicU260 5.6% 17258 08-27-21
210 DaDude 5.5% 17283 08-27-21
211 Richied 5.5% 17287 08-27-21
212 Crispian 5.5% 17289 08-27-21
212 Swinkly 5.5% 17289 08-27-21
214 Zip 5.4% 17307 08-27-21
215 VeritasDL 5.1% 17362 08-27-21
216 tal39h 5.0% 17373 08-27-21
217 ALundstrom10 4.9% 17386 08-27-21
218 Kirbymon30 4.9% 17390 08-27-21
219 soniccoloursunleashed 4.8% 17417 08-27-21
220 Drflash55 4.7% 17429 08-27-21
221 Bass 4.6% 17443 08-27-21
222 neaolas 4.5% 17462 08-27-21
222 Yish 4.5% 17462 08-27-21
224 zapp 4.5% 17463 08-27-21
225 UninspiredUsername 4.4% 17478 08-27-21
226 Sonicsuperstar1 4.4% 17482 08-27-21
227 superiorsonic 4.4% 17485 08-27-21
228 gamefreak1292 4.4% 17493 08-27-21
229 Sora_yx 4.2% 17524 08-27-21
230 Chaos_Overlord 4.0% 17559 08-27-21
231 TakaRikka 3.9% 17577 08-27-21
232 Valfore 3.9% 17583 08-27-21
233 Dage4Aquatic 3.8% 17600 08-27-21
234 ShinigamiMachine 3.7% 17611 08-27-21
235 ArthurVGCP 3.7% 17623 08-27-21
236 Regano1000 3.6% 17632 08-27-21
237 MK 3.5% 17648 08-27-21
238 Ace747 3.5% 17658 08-27-21
239 Jua Rever 3.3% 17685 08-27-21
240 Illidan 3.1% 17732 08-27-21
241 Venick409 3.1% 17733 08-27-21
242 HHNNBBHHN 3.0% 17734 08-27-21
243 Brian_pso 3.0% 17739 08-27-21
244 nman36 3.0% 17741 08-27-21
244 Sithwarrior26 3.0% 17741 08-27-21
246 Egor305 2.9% 17769 08-27-21
247 TheChaosEmeraIds 2.8% 17773 08-27-21
248 ingx24 2.8% 17774 08-27-21
249 Nickson98 2.8% 17784 08-27-21
250 dekki1234 2.8% 17786 08-27-21
250 SkyBon 2.8% 17786 08-27-21
252 FSSRandomvids 2.7% 17791 08-27-21
253 Fozer 2.7% 17804 08-27-21
254 sonic29887 2.6% 17814 08-27-21
255 Colomb_30 2.6% 17815 08-27-21
256 TheUltraBlur 2.6% 17819 08-27-21
257 Aiko 2.6% 17820 08-27-21
258 1stKirbyever 2.5% 17827 08-27-21
259 TimTH 2.4% 17845 08-27-21
260 Th4tN1nj4Turtl3 2.3% 17873 08-27-21
261 Cort_pso 2.2% 17882 08-27-21
262 ieatatsonic 2.2% 17888 08-27-21
263 Doom-9 2.2% 17889 08-27-21
264 Mariosonic15 2.2% 17898 08-27-21
265 MStitomix 2.1% 17912 08-27-21
266 HermitHelmet 2.1% 17916 08-27-21
267 arcfx1985 2.0% 17920 08-27-21
268 SuperSonic71087 2.0% 17932 08-27-21
269 Got4n 1.9% 17937 08-27-21
270 Artie 1.9% 17938 08-27-21
271 Jose_15 1.9% 17946 08-27-21
272 Questionguy555 1.9% 17947 08-27-21
273 djmat 1.8% 17961 08-27-21
274 SuperSonicfan9595 1.8% 17966 08-27-21
275 sonicandamy 1.7% 17987 08-27-21
276 LancexExWx 1.7% 17989 08-27-21
277 Paixii 1.6% 17992 08-27-21
278 son1cgu1tar 1.6% 17997 08-27-21
279 Heroes_Hater 1.5% 18009 08-27-21
280 BallzeH 1.5% 18013 08-27-21
281 Jamixesa 1.5% 18016 08-27-21
282 Mankster101 1.5% 18020 08-27-21
283 BecauseWarAnvil 1.5% 18023 08-27-21
284 Xandre69 1.4% 18028 08-27-21
285 Crydio 1.4% 18036 08-27-21
285 Shanekilz 1.4% 18036 08-27-21
287 SpiritDragon1995 1.4% 18039 08-27-21
288 MarewBFN 1.3% 18051 08-27-21
289 stanski 1.3% 18056 08-27-21
290 Sonique Hedgehog 1.3% 18059 08-27-21
291 Blue Infamy 1.2% 18073 08-27-21
292 p0ker 1.2% 18075 08-27-21
293 ErrortheCucco 1.1% 18084 08-27-21
294 Arthas 1.1% 18087 08-27-21
294 Rikum22 1.1% 18087 08-27-21
296 sonic1001 1.1% 18095 08-27-21
297 AJSIV 1.1% 18098 08-27-21
298 syco1098 1.0% 18101 08-27-21
299 IDGeek121 1.0% 18103 08-27-21
299 Sonic the Hedgehod16 1.0% 18103 08-27-21
301 WingedInsignia 1.0% 18105 08-27-21
302 ASINISTERTACO 1.0% 18111 08-27-21
303 sonicfan9 0.9% 18118 08-27-21
304 BlackArmsShadow 0.9% 18127 08-27-21
305 themachoman202 0.9% 18128 08-27-21
306 shadowblast63 Player Banned 0.9% 18136 08-27-21
307 Fivavoa 0.8% 18137 08-27-21
308 Mr. Jones 0.8% 18139 08-27-21
309 Ben1502 0.8% 18140 08-27-21
309 Greham Adelphis 0.8% 18140 08-27-21
311 darkstarblaze 0.8% 18141 08-27-21
311 MastaToken 0.8% 18141 08-27-21
313 TommyeAsY 0.8% 18142 08-27-21
314 FlandreScarlet9999vr 0.8% 18148 08-27-21
314 ptorflaxendrosis 0.8% 18148 08-27-21
316 Gvozdevik 0.8% 18150 08-27-21
317 Zeldocto 0.8% 18152 08-27-21
318 Knuckles 0.8% 18154 08-27-21
319 BeeAwwb 0.7% 18156 08-27-21
320 KaM Mark MaK 0.7% 18161 08-27-21
321 ShadouZaHejjihoggu 0.7% 18163 08-27-21
322 Sonic The Star 0.7% 18172 08-27-21
323 darkersupershadic 0.6% 18173 08-27-21
324 Sogeking 0.6% 18176 08-27-21
325 Sonic62 0.6% 18177 08-27-21
326 SonicK100 0.6% 18180 08-27-21
327 Sarger001 0.6% 18181 08-27-21
328 Grady219 0.6% 18182 08-27-21
329 dragondragon18 0.6% 18183 08-27-21
330 Shadygamerfreak 0.6% 18184 08-27-21
331 Jawaah 0.6% 18187 08-27-21
332 Antek 0.6% 18191 08-27-21
333 Klaus 0.5% 18193 08-27-21
333 SilverK 0.5% 18193 08-27-21
333 SpinDashMaster 0.5% 18193 08-27-21
336 BioShadow 0.5% 18201 08-27-21
337 Videogamer123 0.5% 18206 08-27-21
338 IcKY 0.5% 18209 08-27-21
339 isaihtb11 0.4% 18216 08-27-21
339 oTaiIilLsS 0.4% 18216 08-27-21
341 OhNoes! 0.4% 18221 08-27-21
342 zaktu40 0.4% 18223 08-27-21
343 Mad Andy 0.4% 18224 08-27-21
343 S-MS32X-S 0.4% 18224 08-27-21
345 gaara1234 0.4% 18226 08-27-21
346 gamed00d 0.3% 18232 08-27-21
347 Mister_Slick 0.3% 18237 08-27-21
348 Sonic06Fan 0.3% 18241 08-27-21
349 Rush Hero 0.3% 18243 08-27-21
350 ChaosNexuss 0.3% 18244 08-27-21
351 SonicMega167 0.2% 18249 08-27-21
352 sonknuck23 0.2% 18252 08-27-21
353 Iwannabelink 0.2% 18253 08-27-21
354 DanielTheFalcon 0.2% 18262 08-27-21
354 gamer1245 0.2% 18262 08-27-21
356 Burningskull123 0.1% 18268 08-27-21
357 Sonicontherun 0.1% 18280 08-27-21
358 Lil_Dude 0.1% 18282 08-27-21
359 antiwwe 0.0% 18286 08-27-21
360 Cbwade15 0.0% 18290 08-27-21
360 Genuine Hedgehog 0.0% 18290 08-27-21
362 Tyrouble 0.0% 18294 08-27-21
363 MakoHNM 0.0% 18301 08-27-21
363 MegabombBlade 0.0% 18301 08-27-21
363 neji_hyuuga 0.0% 18301 08-27-21
363 Over 0.0% 18301 08-27-21
363 sdj6707 Player Banned 0.0% 18301 08-27-21
363 Tran Sonic Fan Player Banned 0.0% 18301 08-27-21

This page is using the New Data Table System. [FUTURE]

Game ID: 3 | Category ID: 10
Hits: 80,601 | Hits This Month: 116 | DB Calls: 21 | Mem Usage: 1.00 MB | Time: 0.04s | Printable

The Sonic Center v3.9
Copyright 2003-2011 by The Sonic Center Team.